Aviation Digital Data Service (ADDS)

Output produced by METARs form (1854 UTC 29 August 2015)
found at http://www.aviationweather.gov/adds/metars/
 
SEGU 291800Z 15007KT 130V200 9999 SCT020 SCT100 30/21 Q1009 NOSIG RMK A2981
TAF SEGU 291635Z 2918/3018 16006KT 9999 SCT023 BKN100 
     FM300000 22012KT 9999 FEW020 SCT090 
     FM300600 22008KT 9999 BKN020 BKN080 
     FM301400 19006KT 9999 SCT023 BKN100 TX31/2920Z TN22/3009Z
       
SEMT 291800Z 20012KT 9999 FEW020 28/21 Q1010 RMK A2984
TAF SEMT 291635Z 2918/3018 21012KT 9999 SCT023 
     TEMPO 2918/2921 27012KT 
     FM300500 19012KT 9999 BKN020 TX30/2920Z TN22/3010Z